KRHV 191747Z 27003KT 10SM BKN120 21/12 A2995